Jimmy Lake, Canada
Current Conditions -  °F | °C
As of 10:39 PM on Saturday 22 Nov 2014 (Local Time) from CWHN Reporting Station
Light Snow Light Snow  
Wind Chill: 12°   Ceiling: 100
Heat Index: 12°   Visibility: 1.2mi
Dew Point:   Wind: 3mph
Humidity: 85%   Direction: 40°NE
Pressure: 29.56"   Gusts: NA
Location:  54.9°N, 109.97°W
Report Text: CWHN 230439Z AUTO 04003KT 340V070 1 1/4SM -SN OVC001 OVC015 M11/M13 A2956
Loading
Personal Weather Stations






























Interactive Weather Map New forecast layout! Learn more

10-Day Weather Forecast

Advertisements
Track Severe Weather on mobile